sensor_id;sensor_type;location;lat;lon;timestamp;P1;durP1;ratioP1;P2;durP2;ratioP2
56233;SDS011;42141;53.240;6.580;2022-11-24T00:01:55;22.85;;;7.90;;
56233;SDS011;42141;53.240;6.580;2022-11-24T00:04:20;18.80;;;8.40;;
56233;SDS011;42141;53.240;6.580;2022-11-24T00:06:46;24.02;;;9.20;;
56233;SDS011;42141;53.240;6.580;2022-11-24T00:09:12;23.75;;;8.43;;
56233;SDS011;42141;53.240;6.580;2022-11-24T00:11:38;26.10;;;8.82;;
56233;SDS011;42141;53.240;6.580;2022-11-24T00:14:04;26.95;;;8.90;;
56233;SDS011;42141;53.240;6.580;2022-11-24T00:16:32;18.33;;;8.15;;
56233;SDS011;42141;53.240;6.580;2022-11-24T00:19:00;20.88;;;8.10;;
56233;SDS011;42141;53.240;6.580;2022-11-24T00:21:28;26.55;;;8.60;;
56233;SDS011;42141;53.240;6.580;2022-11-24T00:23:54;16.35;;;8.50;;
56233;SDS011;42141;53.240;6.580;2022-11-24T00:26:25;15.57;;;8.70;;
56233;SDS011;42141;53.240;6.580;2022-11-24T00:28:56;24.20;;;8.20;;
56233;SDS011;42141;53.240;6.580;2022-11-24T00:33:52;16.30;;;7.95;;
56233;SDS011;42141;53.240;6.580;2022-11-24T00:36:20;19.73;;;7.60;;
56233;SDS011;42141;53.240;6.580;2022-11-24T00:38:51;17.52;;;8.02;;
56233;SDS011;42141;53.240;6.580;2022-11-24T00:41:18;23.45;;;7.93;;
56233;SDS011;42141;53.240;6.580;2022-11-24T00:43:44;12.10;;;7.25;;
56233;SDS011;42141;53.240;6.580;2022-11-24T00:46:09;18.60;;;7.35;;
56233;SDS011;42141;53.240;6.580;2022-11-24T00:48:35;16.80;;;7.80;;
56233;SDS011;42141;53.240;6.580;2022-11-24T00:51:02;19.35;;;7.32;;
56233;SDS011;42141;53.240;6.580;2022-11-24T00:53:30;26.58;;;8.60;;
56233;SDS011;42141;53.240;6.580;2022-11-24T00:55:56;18.58;;;7.28;;
56233;SDS011;42141;53.240;6.580;2022-11-24T00:58:22;17.35;;;7.45;;
56233;SDS011;42141;53.240;6.580;2022-11-24T01:00:49;19.63;;;7.28;;
56233;SDS011;42141;53.240;6.580;2022-11-24T01:03:16;24.38;;;7.80;;
56233;SDS011;42141;53.240;6.580;2022-11-24T01:05:42;18.90;;;8.38;;
56233;SDS011;42141;53.240;6.580;2022-11-24T01:08:08;23.38;;;6.50;;
56233;SDS011;42141;53.240;6.580;2022-11-24T01:10:34;23.42;;;7.57;;
56233;SDS011;42141;53.240;6.580;2022-11-24T01:13:00;22.15;;;6.97;;
56233;SDS011;42141;53.240;6.580;2022-11-24T01:15:26;29.13;;;7.47;;
56233;SDS011;42141;53.240;6.580;2022-11-24T01:17:54;25.45;;;7.90;;
56233;SDS011;42141;53.240;6.580;2022-11-24T01:20:20;30.10;;;8.02;;
56233;SDS011;42141;53.240;6.580;2022-11-24T01:22:49;23.98;;;6.40;;
56233;SDS011;42141;53.240;6.580;2022-11-24T01:25:15;21.50;;;6.32;;
56233;SDS011;42141;53.240;6.580;2022-11-24T01:27:40;22.77;;;6.80;;
56233;SDS011;42141;53.240;6.580;2022-11-24T01:30:06;26.55;;;8.38;;
56233;SDS011;42141;53.240;6.580;2022-11-24T01:32:33;24.75;;;7.05;;
56233;SDS011;42141;53.240;6.580;2022-11-24T01:35:00;21.23;;;5.85;;
56233;SDS011;42141;53.240;6.580;2022-11-24T01:37:26;21.92;;;5.90;;
56233;SDS011;42141;53.240;6.580;2022-11-24T01:39:52;24.38;;;5.97;;
56233;SDS011;42141;53.240;6.580;2022-11-24T01:42:17;24.60;;;5.55;;
56233;SDS011;42141;53.240;6.580;2022-11-24T01:44:43;25.23;;;5.57;;
56233;SDS011;42141;53.240;6.580;2022-11-24T01:47:26;26.38;;;5.53;;
56233;SDS011;42141;53.240;6.580;2022-11-24T01:49:58;27.33;;;6.47;;
56233;SDS011;42141;53.240;6.580;2022-11-24T01:55:02;24.10;;;6.68;;
56233;SDS011;42141;53.240;6.580;2022-11-24T01:57:55;19.92;;;4.78;;
56233;SDS011;42141;53.240;6.580;2022-11-24T02:00:27;20.45;;;5.22;;
56233;SDS011;42141;53.240;6.580;2022-11-24T02:02:52;23.38;;;5.07;;
56233;SDS011;42141;53.240;6.580;2022-11-24T02:05:25;21.35;;;4.80;;
56233;SDS011;42141;53.240;6.580;2022-11-24T02:07:58;30.65;;;5.97;;
56233;SDS011;42141;53.240;6.580;2022-11-24T02:10:26;21.65;;;6.95;;
56233;SDS011;42141;53.240;6.580;2022-11-24T02:12:52;24.42;;;4.97;;
56233;SDS011;42141;53.240;6.580;2022-11-24T02:15:21;29.13;;;5.57;;
56233;SDS011;42141;53.240;6.580;2022-11-24T02:17:48;31.02;;;4.55;;
56233;SDS011;42141;53.240;6.580;2022-11-24T02:20:14;24.85;;;4.80;;
56233;SDS011;42141;53.240;6.580;2022-11-24T02:25:12;25.45;;;4.97;;
56233;SDS011;42141;53.240;6.580;2022-11-24T02:27:58;28.75;;;5.30;;
56233;SDS011;42141;53.240;6.580;2022-11-24T02:30:25;29.80;;;5.93;;
56233;SDS011;42141;53.240;6.580;2022-11-24T02:32:52;31.30;;;5.22;;
56233;SDS011;42141;53.240;6.580;2022-11-24T02:35:18;20.17;;;4.25;;
56233;SDS011;42141;53.240;6.580;2022-11-24T02:37:44;28.05;;;5.78;;
56233;SDS011;42141;53.240;6.580;2022-11-24T02:40:10;18.88;;;3.80;;
56233;SDS011;42141;53.240;6.580;2022-11-24T02:42:40;23.73;;;4.25;;
56233;SDS011;42141;53.240;6.580;2022-11-24T02:45:08;18.25;;;3.75;;
56233;SDS011;42141;53.240;6.580;2022-11-24T02:47:35;28.45;;;4.70;;
56233;SDS011;42141;53.240;6.580;2022-11-24T02:50:00;17.85;;;4.00;;
56233;SDS011;42141;53.240;6.580;2022-11-24T02:52:26;23.30;;;3.97;;
56233;SDS011;42141;53.240;6.580;2022-11-24T02:54:52;26.15;;;4.72;;
56233;SDS011;42141;53.240;6.580;2022-11-24T02:57:18;20.85;;;4.30;;
56233;SDS011;42141;53.240;6.580;2022-11-24T02:59:43;26.23;;;4.18;;
56233;SDS011;42141;53.240;6.580;2022-11-24T03:02:10;25.63;;;4.20;;
56233;SDS011;42141;53.240;6.580;2022-11-24T03:04:36;29.55;;;5.22;;
56233;SDS011;42141;53.240;6.580;2022-11-24T03:07:01;15.68;;;4.22;;
56233;SDS011;42141;53.240;6.580;2022-11-24T03:09:28;29.52;;;7.25;;
56233;SDS011;42141;53.240;6.580;2022-11-24T03:11:54;23.13;;;4.05;;
56233;SDS011;42141;53.240;6.580;2022-11-24T03:14:19;22.95;;;3.95;;
56233;SDS011;42141;53.240;6.580;2022-11-24T03:16:45;27.80;;;3.65;;
56233;SDS011;42141;53.240;6.580;2022-11-24T03:19:11;18.35;;;3.47;;
56233;SDS011;42141;53.240;6.580;2022-11-24T03:21:36;26.80;;;5.75;;
56233;SDS011;42141;53.240;6.580;2022-11-24T03:24:02;24.83;;;4.90;;
56233;SDS011;42141;53.240;6.580;2022-11-24T03:26:28;29.70;;;4.15;;
56233;SDS011;42141;53.240;6.580;2022-11-24T03:28:54;24.35;;;4.10;;
56233;SDS011;42141;53.240;6.580;2022-11-24T03:31:21;19.08;;;4.32;;
56233;SDS011;42141;53.240;6.580;2022-11-24T03:33:49;29.77;;;4.88;;
56233;SDS011;42141;53.240;6.580;2022-11-24T03:36:15;24.02;;;4.45;;
56233;SDS011;42141;53.240;6.580;2022-11-24T03:38:41;17.25;;;3.75;;
56233;SDS011;42141;53.240;6.580;2022-11-24T03:41:06;17.40;;;3.78;;
56233;SDS011;42141;53.240;6.580;2022-11-24T03:43:32;20.40;;;3.70;;
56233;SDS011;42141;53.240;6.580;2022-11-24T03:45:58;21.92;;;4.13;;
56233;SDS011;42141;53.240;6.580;2022-11-24T03:48:24;22.63;;;3.47;;
56233;SDS011;42141;53.240;6.580;2022-11-24T03:50:53;16.45;;;3.60;;
56233;SDS011;42141;53.240;6.580;2022-11-24T03:53:23;16.30;;;4.30;;
56233;SDS011;42141;53.240;6.580;2022-11-24T03:55:50;26.15;;;3.95;;
56233;SDS011;42141;53.240;6.580;2022-11-24T03:58:16;20.67;;;3.38;;
56233;SDS011;42141;53.240;6.580;2022-11-24T04:00:42;25.45;;;3.47;;
56233;SDS011;42141;53.240;6.580;2022-11-24T04:03:08;16.42;;;3.88;;
56233;SDS011;42141;53.240;6.580;2022-11-24T04:05:34;15.82;;;2.83;;
56233;SDS011;42141;53.240;6.580;2022-11-24T04:08:00;25.25;;;4.43;;
56233;SDS011;42141;53.240;6.580;2022-11-24T04:10:28;16.27;;;3.75;;
56233;SDS011;42141;53.240;6.580;2022-11-24T04:12:54;18.20;;;3.28;;
56233;SDS011;42141;53.240;6.580;2022-11-24T04:15:20;14.57;;;2.80;;
56233;SDS011;42141;53.240;6.580;2022-11-24T04:17:46;25.52;;;5.43;;
56233;SDS011;42141;53.240;6.580;2022-11-24T04:20:13;17.73;;;3.00;;
56233;SDS011;42141;53.240;6.580;2022-11-24T04:22:39;22.73;;;3.63;;
56233;SDS011;42141;53.240;6.580;2022-11-24T04:25:06;28.48;;;4.25;;
56233;SDS011;42141;53.240;6.580;2022-11-24T04:27:33;18.73;;;3.60;;
56233;SDS011;42141;53.240;6.580;2022-11-24T04:30:00;18.30;;;3.13;;
56233;SDS011;42141;53.240;6.580;2022-11-24T04:32:26;20.45;;;4.10;;
56233;SDS011;42141;53.240;6.580;2022-11-24T04:34:52;28.38;;;3.85;;
56233;SDS011;42141;53.240;6.580;2022-11-24T04:37:18;16.13;;;3.35;;
56233;SDS011;42141;53.240;6.580;2022-11-24T04:39:43;20.23;;;3.65;;
56233;SDS011;42141;53.240;6.580;2022-11-24T04:42:10;23.25;;;3.83;;
56233;SDS011;42141;53.240;6.580;2022-11-24T04:44:36;17.85;;;2.78;;
56233;SDS011;42141;53.240;6.580;2022-11-24T04:47:02;17.70;;;3.03;;
56233;SDS011;42141;53.240;6.580;2022-11-24T04:49:29;26.92;;;3.40;;
56233;SDS011;42141;53.240;6.580;2022-11-24T04:51:54;20.10;;;3.65;;
56233;SDS011;42141;53.240;6.580;2022-11-24T04:54:20;16.77;;;3.25;;
56233;SDS011;42141;53.240;6.580;2022-11-24T04:56:49;20.00;;;3.95;;
56233;SDS011;42141;53.240;6.580;2022-11-24T04:59:18;19.15;;;3.55;;
56233;SDS011;42141;53.240;6.580;2022-11-24T05:01:44;22.63;;;3.47;;
56233;SDS011;42141;53.240;6.580;2022-11-24T05:04:11;27.77;;;3.75;;
56233;SDS011;42141;53.240;6.580;2022-11-24T05:06:38;21.95;;;3.20;;
56233;SDS011;42141;53.240;6.580;2022-11-24T05:09:04;17.95;;;3.10;;
56233;SDS011;42141;53.240;6.580;2022-11-24T05:11:31;18.95;;;3.35;;
56233;SDS011;42141;53.240;6.580;2022-11-24T05:13:58;24.45;;;3.00;;
56233;SDS011;42141;53.240;6.580;2022-11-24T05:16:23;16.27;;;2.88;;
56233;SDS011;42141;53.240;6.580;2022-11-24T05:18:49;15.63;;;2.50;;
56233;SDS011;42141;53.240;6.580;2022-11-24T05:21:15;26.65;;;3.17;;
56233;SDS011;42141;53.240;6.580;2022-11-24T05:23:41;22.13;;;3.55;;
56233;SDS011;42141;53.240;6.580;2022-11-24T05:26:06;18.98;;;2.97;;
56233;SDS011;42141;53.240;6.580;2022-11-24T05:28:32;23.88;;;4.03;;
56233;SDS011;42141;53.240;6.580;2022-11-24T05:30:59;17.38;;;2.67;;
56233;SDS011;42141;53.240;6.580;2022-11-24T05:33:25;19.85;;;3.45;;
56233;SDS011;42141;53.240;6.580;2022-11-24T05:35:52;18.55;;;4.05;;
56233;SDS011;42141;53.240;6.580;2022-11-24T05:38:18;24.55;;;3.15;;
56233;SDS011;42141;53.240;6.580;2022-11-24T05:40:46;24.70;;;2.97;;
56233;SDS011;42141;53.240;6.580;2022-11-24T05:43:12;19.00;;;2.10;;
56233;SDS011;42141;53.240;6.580;2022-11-24T05:45:39;20.20;;;2.65;;
56233;SDS011;42141;53.240;6.580;2022-11-24T05:48:06;15.90;;;3.28;;
56233;SDS011;42141;53.240;6.580;2022-11-24T05:50:34;21.35;;;2.85;;
56233;SDS011;42141;53.240;6.580;2022-11-24T05:53:03;20.23;;;2.72;;
56233;SDS011;42141;53.240;6.580;2022-11-24T05:55:30;12.82;;;2.63;;
56233;SDS011;42141;53.240;6.580;2022-11-24T05:58:00;16.95;;;2.85;;
56233;SDS011;42141;53.240;6.580;2022-11-24T06:00:28;22.67;;;3.38;;
56233;SDS011;42141;53.240;6.580;2022-11-24T06:02:58;17.90;;;3.15;;
56233;SDS011;42141;53.240;6.580;2022-11-24T06:05:24;17.17;;;3.15;;
56233;SDS011;42141;53.240;6.580;2022-11-24T06:07:51;19.23;;;3.22;;
56233;SDS011;42141;53.240;6.580;2022-11-24T06:10:18;19.02;;;5.03;;
56233;SDS011;42141;53.240;6.580;2022-11-24T06:12:45;27.23;;;3.22;;
56233;SDS011;42141;53.240;6.580;2022-11-24T06:15:11;15.07;;;2.28;;
56233;SDS011;42141;53.240;6.580;2022-11-24T06:17:38;15.68;;;2.70;;
56233;SDS011;42141;53.240;6.580;2022-11-24T06:20:04;10.60;;;2.13;;
56233;SDS011;42141;53.240;6.580;2022-11-24T06:22:31;15.63;;;3.13;;
56233;SDS011;42141;53.240;6.580;2022-11-24T06:24:57;38.15;;;5.20;;
56233;SDS011;42141;53.240;6.580;2022-11-24T06:27:23;11.48;;;2.65;;
56233;SDS011;42141;53.240;6.580;2022-11-24T06:29:49;16.67;;;2.30;;
56233;SDS011;42141;53.240;6.580;2022-11-24T06:32:15;23.33;;;2.63;;
56233;SDS011;42141;53.240;6.580;2022-11-24T06:34:41;13.38;;;3.08;;
56233;SDS011;42141;53.240;6.580;2022-11-24T06:37:07;20.65;;;2.33;;
56233;SDS011;42141;53.240;6.580;2022-11-24T06:39:33;17.17;;;1.98;;
56233;SDS011;42141;53.240;6.580;2022-11-24T06:41:59;15.05;;;2.75;;
56233;SDS011;42141;53.240;6.580;2022-11-24T06:44:25;16.77;;;2.70;;
56233;SDS011;42141;53.240;6.580;2022-11-24T06:46:51;13.10;;;2.03;;
56233;SDS011;42141;53.240;6.580;2022-11-24T06:49:16;21.42;;;2.65;;
56233;SDS011;42141;53.240;6.580;2022-11-24T06:51:42;19.13;;;1.98;;
56233;SDS011;42141;53.240;6.580;2022-11-24T06:54:08;15.75;;;2.90;;
56233;SDS011;42141;53.240;6.580;2022-11-24T06:56:36;15.60;;;2.50;;
56233;SDS011;42141;53.240;6.580;2022-11-24T06:59:03;18.65;;;3.22;;
56233;SDS011;42141;53.240;6.580;2022-11-24T07:01:28;9.65;;;2.13;;
56233;SDS011;42141;53.240;6.580;2022-11-24T07:03:54;11.38;;;1.85;;
56233;SDS011;42141;53.240;6.580;2022-11-24T07:06:21;14.07;;;3.45;;
56233;SDS011;42141;53.240;6.580;2022-11-24T07:08:48;21.33;;;2.63;;
56233;SDS011;42141;53.240;6.580;2022-11-24T07:11:16;21.55;;;3.05;;
56233;SDS011;42141;53.240;6.580;2022-11-24T07:13:44;17.33;;;2.85;;
56233;SDS011;42141;53.240;6.580;2022-11-24T07:18:43;14.50;;;3.80;;
56233;SDS011;42141;53.240;6.580;2022-11-24T07:21:10;14.73;;;2.95;;
56233;SDS011;42141;53.240;6.580;2022-11-24T07:23:36;23.88;;;3.72;;
56233;SDS011;42141;53.240;6.580;2022-11-24T07:26:03;14.80;;;2.28;;
56233;SDS011;42141;53.240;6.580;2022-11-24T07:28:29;16.38;;;2.75;;
56233;SDS011;42141;53.240;6.580;2022-11-24T07:30:55;12.25;;;2.15;;
56233;SDS011;42141;53.240;6.580;2022-11-24T07:33:21;14.23;;;3.65;;
56233;SDS011;42141;53.240;6.580;2022-11-24T07:35:52;18.55;;;2.38;;
56233;SDS011;42141;53.240;6.580;2022-11-24T07:38:18;19.80;;;3.10;;
56233;SDS011;42141;53.240;6.580;2022-11-24T07:40:44;14.85;;;2.33;;
56233;SDS011;42141;53.240;6.580;2022-11-24T07:43:10;12.93;;;2.88;;
56233;SDS011;42141;53.240;6.580;2022-11-24T07:45:36;17.73;;;3.03;;
56233;SDS011;42141;53.240;6.580;2022-11-24T07:48:02;27.92;;;4.05;;
56233;SDS011;42141;53.240;6.580;2022-11-24T07:50:27;22.67;;;3.85;;
56233;SDS011;42141;53.240;6.580;2022-11-24T07:52:53;13.70;;;2.70;;
56233;SDS011;42141;53.240;6.580;2022-11-24T07:55:19;19.35;;;3.10;;
56233;SDS011;42141;53.240;6.580;2022-11-24T07:57:44;16.35;;;3.00;;
56233;SDS011;42141;53.240;6.580;2022-11-24T08:00:10;18.40;;;4.22;;
56233;SDS011;42141;53.240;6.580;2022-11-24T08:02:37;11.85;;;3.58;;
56233;SDS011;42141;53.240;6.580;2022-11-24T08:05:03;16.35;;;3.60;;
56233;SDS011;42141;53.240;6.580;2022-11-24T08:07:29;13.82;;;2.42;;
56233;SDS011;42141;53.240;6.580;2022-11-24T08:09:55;19.67;;;3.20;;
56233;SDS011;42141;53.240;6.580;2022-11-24T08:12:21;19.00;;;3.00;;
56233;SDS011;42141;53.240;6.580;2022-11-24T08:14:47;21.25;;;3.20;;
56233;SDS011;42141;53.240;6.580;2022-11-24T08:17:13;14.68;;;2.70;;
56233;SDS011;42141;53.240;6.580;2022-11-24T08:19:39;24.63;;;3.97;;
56233;SDS011;42141;53.240;6.580;2022-11-24T08:22:05;16.88;;;3.58;;
56233;SDS011;42141;53.240;6.580;2022-11-24T08:24:30;16.17;;;3.15;;
56233;SDS011;42141;53.240;6.580;2022-11-24T08:26:56;17.58;;;3.00;;
56233;SDS011;42141;53.240;6.580;2022-11-24T08:29:22;19.48;;;2.83;;
56233;SDS011;42141;53.240;6.580;2022-11-24T08:31:51;24.02;;;3.42;;
56233;SDS011;42141;53.240;6.580;2022-11-24T08:34:17;14.23;;;3.35;;
56233;SDS011;42141;53.240;6.580;2022-11-24T08:36:42;20.45;;;3.20;;
56233;SDS011;42141;53.240;6.580;2022-11-24T08:39:08;15.35;;;3.67;;
56233;SDS011;42141;53.240;6.580;2022-11-24T08:41:36;23.25;;;3.85;;
56233;SDS011;42141;53.240;6.580;2022-11-24T08:44:01;18.33;;;3.35;;
56233;SDS011;42141;53.240;6.580;2022-11-24T08:46:27;18.05;;;3.60;;
56233;SDS011;42141;53.240;6.580;2022-11-24T08:48:53;17.02;;;4.15;;
56233;SDS011;42141;53.240;6.580;2022-11-24T08:51:23;17.17;;;3.08;;
56233;SDS011;42141;53.240;6.580;2022-11-24T08:53:52;13.40;;;3.03;;
56233;SDS011;42141;53.240;6.580;2022-11-24T08:56:23;21.38;;;3.20;;
56233;SDS011;42141;53.240;6.580;2022-11-24T08:58:49;19.15;;;3.45;;
56233;SDS011;42141;53.240;6.580;2022-11-24T09:01:16;23.48;;;3.35;;
56233;SDS011;42141;53.240;6.580;2022-11-24T09:03:42;22.20;;;3.53;;
56233;SDS011;42141;53.240;6.580;2022-11-24T09:06:09;20.73;;;4.45;;
56233;SDS011;42141;53.240;6.580;2022-11-24T09:08:35;20.48;;;3.15;;
56233;SDS011;42141;53.240;6.580;2022-11-24T09:11:02;16.98;;;3.20;;
56233;SDS011;42141;53.240;6.580;2022-11-24T09:13:32;14.73;;;3.05;;
56233;SDS011;42141;53.240;6.580;2022-11-24T09:16:05;12.93;;;3.10;;
56233;SDS011;42141;53.240;6.580;2022-11-24T09:18:33;17.42;;;3.53;;
56233;SDS011;42141;53.240;6.580;2022-11-24T09:21:06;13.38;;;2.67;;
56233;SDS011;42141;53.240;6.580;2022-11-24T09:23:33;14.00;;;3.83;;
56233;SDS011;42141;53.240;6.580;2022-11-24T09:26:10;12.98;;;3.63;;
56233;SDS011;42141;53.240;6.580;2022-11-24T09:28:42;16.57;;;3.43;;
56233;SDS011;42141;53.240;6.580;2022-11-24T09:31:10;14.80;;;2.85;;
56233;SDS011;42141;53.240;6.580;2022-11-24T09:33:37;14.13;;;2.88;;
56233;SDS011;42141;53.240;6.580;2022-11-24T09:36:03;17.17;;;3.40;;
56233;SDS011;42141;53.240;6.580;2022-11-24T09:38:29;9.00;;;2.33;;
56233;SDS011;42141;53.240;6.580;2022-11-24T09:41:02;13.07;;;2.40;;
56233;SDS011;42141;53.240;6.580;2022-11-24T09:44:03;11.90;;;3.22;;
56233;SDS011;42141;53.240;6.580;2022-11-24T09:49:15;11.25;;;2.60;;
56233;SDS011;42141;53.240;6.580;2022-11-24T09:51:52;7.10;;;2.35;;
56233;SDS011;42141;53.240;6.580;2022-11-24T09:54:21;9.45;;;2.70;;
56233;SDS011;42141;53.240;6.580;2022-11-24T09:56:50;14.40;;;2.83;;
56233;SDS011;42141;53.240;6.580;2022-11-24T09:59:17;13.48;;;3.60;;
56233;SDS011;42141;53.240;6.580;2022-11-24T10:01:45;12.52;;;2.55;;
56233;SDS011;42141;53.240;6.580;2022-11-24T10:04:17;7.53;;;2.28;;
56233;SDS011;42141;53.240;6.580;2022-11-24T10:23:44;6.75;;;1.60;;
56233;SDS011;42141;53.240;6.580;2022-11-24T10:26:30;5.03;;;1.10;;
56233;SDS011;42141;53.240;6.580;2022-11-24T10:29:25;10.32;;;2.30;;
56233;SDS011;42141;53.240;6.580;2022-11-24T10:31:53;8.18;;;1.88;;
56233;SDS011;42141;53.240;6.580;2022-11-24T10:37:15;10.70;;;1.90;;
56233;SDS011;42141;53.240;6.580;2022-11-24T10:39:51;6.00;;;1.67;;
56233;SDS011;42141;53.240;6.580;2022-11-24T10:42:30;9.80;;;2.10;;
56233;SDS011;42141;53.240;6.580;2022-11-24T10:47:33;11.00;;;1.48;;
56233;SDS011;42141;53.240;6.580;2022-11-24T10:52:35;10.75;;;1.80;;
56233;SDS011;42141;53.240;6.580;2022-11-24T10:55:06;5.80;;;1.48;;
56233;SDS011;42141;53.240;6.580;2022-11-24T10:57:33;5.93;;;1.45;;
56233;SDS011;42141;53.240;6.580;2022-11-24T11:00:01;11.60;;;2.08;;
56233;SDS011;42141;53.240;6.580;2022-11-24T11:02:48;12.57;;;3.53;;
56233;SDS011;42141;53.240;6.580;2022-11-24T11:07:53;9.38;;;2.90;;
56233;SDS011;42141;53.240;6.580;2022-11-24T11:11:12;5.97;;;1.70;;
56233;SDS011;42141;53.240;6.580;2022-11-24T11:13:37;4.82;;;1.40;;
56233;SDS011;42141;53.240;6.580;2022-11-24T11:16:21;6.88;;;1.58;;
56233;SDS011;42141;53.240;6.580;2022-11-24T11:18:49;7.78;;;2.25;;
56233;SDS011;42141;53.240;6.580;2022-11-24T11:21:26;7.43;;;2.05;;
56233;SDS011;42141;53.240;6.580;2022-11-24T11:23:56;6.15;;;2.67;;
56233;SDS011;42141;53.240;6.580;2022-11-24T11:28:58;7.68;;;1.25;;
56233;SDS011;42141;53.240;6.580;2022-11-24T11:31:31;5.40;;;1.00;;
56233;SDS011;42141;53.240;6.580;2022-11-24T11:34:01;7.22;;;1.40;;
56233;SDS011;42141;53.240;6.580;2022-11-24T11:36:39;7.32;;;2.00;;
56233;SDS011;42141;53.240;6.580;2022-11-24T11:39:14;9.30;;;1.60;;
56233;SDS011;42141;53.240;6.580;2022-11-24T11:45:04;6.95;;;1.25;;
56233;SDS011;42141;53.240;6.580;2022-11-24T12:09:32;8.77;;;1.80;;
56233;SDS011;42141;53.240;6.580;2022-11-24T12:17:33;12.23;;;2.22;;
56233;SDS011;42141;53.240;6.580;2022-11-24T12:25:45;9.38;;;1.48;;
56233;SDS011;42141;53.240;6.580;2022-11-24T12:31:05;12.50;;;1.80;;
56233;SDS011;42141;53.240;6.580;2022-11-24T12:39:17;13.23;;;3.00;;
56233;SDS011;42141;53.240;6.580;2022-11-24T12:50:11;9.65;;;1.65;;
56233;SDS011;42141;53.240;6.580;2022-11-24T12:52:45;9.40;;;2.83;;
56233;SDS011;42141;53.240;6.580;2022-11-24T12:55:16;15.55;;;2.25;;
56233;SDS011;42141;53.240;6.580;2022-11-24T12:57:54;11.18;;;2.88;;
56233;SDS011;42141;53.240;6.580;2022-11-24T13:00:33;11.85;;;1.30;;
56233;SDS011;42141;53.240;6.580;2022-11-24T13:03:08;11.02;;;1.55;;
56233;SDS011;42141;53.240;6.580;2022-11-24T13:05:51;8.60;;;1.67;;
56233;SDS011;42141;53.240;6.580;2022-11-24T13:08:40;17.92;;;3.40;;
56233;SDS011;42141;53.240;6.580;2022-11-24T13:13:55;10.02;;;1.45;;
56233;SDS011;42141;53.240;6.580;2022-11-24T13:16:26;11.77;;;2.92;;
56233;SDS011;42141;53.240;6.580;2022-11-24T13:18:56;9.48;;;1.25;;
56233;SDS011;42141;53.240;6.580;2022-11-24T13:24:02;10.70;;;1.65;;
56233;SDS011;42141;53.240;6.580;2022-11-24T13:31:53;13.25;;;1.85;;
56233;SDS011;42141;53.240;6.580;2022-11-24T13:55:54;13.85;;;2.08;;
56233;SDS011;42141;53.240;6.580;2022-11-24T13:58:36;11.35;;;1.98;;
56233;SDS011;42141;53.240;6.580;2022-11-24T14:04:22;17.42;;;1.92;;
56233;SDS011;42141;53.240;6.580;2022-11-24T14:11:54;11.93;;;1.90;;
56233;SDS011;42141;53.240;6.580;2022-11-24T14:14:29;18.05;;;2.20;;
56233;SDS011;42141;53.240;6.580;2022-11-24T14:17:12;10.05;;;2.17;;
56233;SDS011;42141;53.240;6.580;2022-11-24T14:19:41;12.95;;;2.03;;
56233;SDS011;42141;53.240;6.580;2022-11-24T14:22:19;10.85;;;2.10;;
56233;SDS011;42141;53.240;6.580;2022-11-24T14:24:52;10.35;;;1.40;;
56233;SDS011;42141;53.240;6.580;2022-11-24T14:27:22;9.02;;;2.05;;
56233;SDS011;42141;53.240;6.580;2022-11-24T14:29:55;12.48;;;2.53;;
56233;SDS011;42141;53.240;6.580;2022-11-24T14:32:23;15.07;;;3.08;;
56233;SDS011;42141;53.240;6.580;2022-11-24T14:34:48;16.67;;;3.60;;
56233;SDS011;42141;53.240;6.580;2022-11-24T14:37:16;15.23;;;3.28;;
56233;SDS011;42141;53.240;6.580;2022-11-24T14:39:43;16.52;;;2.50;;
56233;SDS011;42141;53.240;6.580;2022-11-24T14:42:22;17.38;;;2.47;;
56233;SDS011;42141;53.240;6.580;2022-11-24T14:45:13;11.05;;;2.00;;
56233;SDS011;42141;53.240;6.580;2022-11-24T14:47:43;19.35;;;2.58;;
56233;SDS011;42141;53.240;6.580;2022-11-24T14:50:10;23.35;;;2.78;;
56233;SDS011;42141;53.240;6.580;2022-11-24T14:52:43;14.25;;;2.90;;
56233;SDS011;42141;53.240;6.580;2022-11-24T14:55:23;11.73;;;2.03;;
56233;SDS011;42141;53.240;6.580;2022-11-24T14:57:54;24.73;;;4.30;;
56233;SDS011;42141;53.240;6.580;2022-11-24T15:02:52;22.55;;;2.40;;
56233;SDS011;42141;53.240;6.580;2022-11-24T15:05:24;17.95;;;2.75;;
56233;SDS011;42141;53.240;6.580;2022-11-24T15:08:00;9.15;;;2.40;;
56233;SDS011;42141;53.240;6.580;2022-11-24T15:10:36;9.20;;;1.85;;
56233;SDS011;42141;53.240;6.580;2022-11-24T15:13:04;14.25;;;1.88;;
56233;SDS011;42141;53.240;6.580;2022-11-24T15:15:40;7.97;;;2.28;;
56233;SDS011;42141;53.240;6.580;2022-11-24T15:18:21;13.05;;;2.75;;
56233;SDS011;42141;53.240;6.580;2022-11-24T15:20:50;11.20;;;1.80;;
56233;SDS011;42141;53.240;6.580;2022-11-24T15:23:24;15.35;;;2.78;;
56233;SDS011;42141;53.240;6.580;2022-11-24T15:25:52;17.85;;;2.50;;
56233;SDS011;42141;53.240;6.580;2022-11-24T15:28:38;16.70;;;2.65;;
56233;SDS011;42141;53.240;6.580;2022-11-24T15:31:04;18.33;;;1.67;;
56233;SDS011;42141;53.240;6.580;2022-11-24T15:33:34;12.80;;;2.50;;
56233;SDS011;42141;53.240;6.580;2022-11-24T15:36:00;15.85;;;2.65;;
56233;SDS011;42141;53.240;6.580;2022-11-24T15:38:26;16.60;;;2.13;;
56233;SDS011;42141;53.240;6.580;2022-11-24T15:40:53;12.32;;;2.33;;
56233;SDS011;42141;53.240;6.580;2022-11-24T15:45:59;8.18;;;2.08;;
56233;SDS011;42141;53.240;6.580;2022-11-24T15:48:26;22.92;;;4.43;;
56233;SDS011;42141;53.240;6.580;2022-11-24T15:50:52;15.15;;;3.53;;
56233;SDS011;42141;53.240;6.580;2022-11-24T15:53:40;10.73;;;2.25;;
56233;SDS011;42141;53.240;6.580;2022-11-24T15:56:30;17.98;;;3.35;;
56233;SDS011;42141;53.240;6.580;2022-11-24T15:58:57;12.10;;;2.50;;
56233;SDS011;42141;53.240;6.580;2022-11-24T16:01:23;15.38;;;2.83;;
56233;SDS011;42141;53.240;6.580;2022-11-24T16:03:52;20.77;;;4.20;;
56233;SDS011;42141;53.240;6.580;2022-11-24T16:06:18;14.82;;;2.78;;
56233;SDS011;42141;53.240;6.580;2022-11-24T16:08:45;22.95;;;3.70;;
56233;SDS011;42141;53.240;6.580;2022-11-24T16:11:11;15.48;;;4.32;;
56233;SDS011;42141;53.240;6.580;2022-11-24T16:13:37;30.35;;;6.43;;
56233;SDS011;42141;53.240;6.580;2022-11-24T16:16:02;22.58;;;6.40;;
56233;SDS011;42141;53.240;6.580;2022-11-24T16:18:28;17.63;;;5.30;;
56233;SDS011;42141;53.240;6.580;2022-11-24T16:20:55;23.85;;;5.47;;
56233;SDS011;42141;53.240;6.580;2022-11-24T16:23:21;15.70;;;3.33;;
56233;SDS011;42141;53.240;6.580;2022-11-24T16:25:47;26.85;;;3.78;;
56233;SDS011;42141;53.240;6.580;2022-11-24T16:28:13;17.80;;;3.08;;
56233;SDS011;42141;53.240;6.580;2022-11-24T16:30:39;18.15;;;3.22;;
56233;SDS011;42141;53.240;6.580;2022-11-24T16:33:04;11.50;;;2.75;;
56233;SDS011;42141;53.240;6.580;2022-11-24T16:35:31;21.38;;;4.10;;
56233;SDS011;42141;53.240;6.580;2022-11-24T16:37:57;17.67;;;3.90;;
56233;SDS011;42141;53.240;6.580;2022-11-24T16:40:23;19.38;;;4.25;;
56233;SDS011;42141;53.240;6.580;2022-11-24T16:42:48;18.45;;;4.60;;
56233;SDS011;42141;53.240;6.580;2022-11-24T16:45:14;18.20;;;3.00;;
56233;SDS011;42141;53.240;6.580;2022-11-24T16:47:40;9.57;;;2.97;;
56233;SDS011;42141;53.240;6.580;2022-11-24T16:50:10;15.45;;;2.92;;
56233;SDS011;42141;53.240;6.580;2022-11-24T16:52:36;12.52;;;3.47;;
56233;SDS011;42141;53.240;6.580;2022-11-24T16:55:03;14.65;;;3.30;;
56233;SDS011;42141;53.240;6.580;2022-11-24T16:57:34;20.30;;;4.05;;
56233;SDS011;42141;53.240;6.580;2022-11-24T17:00:00;19.67;;;4.88;;
56233;SDS011;42141;53.240;6.580;2022-11-24T17:02:26;22.95;;;4.03;;
56233;SDS011;42141;53.240;6.580;2022-11-24T17:04:51;23.02;;;5.20;;
56233;SDS011;42141;53.240;6.580;2022-11-24T17:07:17;21.52;;;4.28;;